Herndon, Virginia
Current Conditions -  °F | °C
As of 9:52 AM on Friday 24 Oct 2014 (Local Time) from KIAD Reporting Station
Broken Clouds Broken Clouds  
Wind Chill: 55°   Ceiling: 20000
Heat Index: 55°   Visibility: 10mi
Dew Point: 42°   Wind: 18mph
Humidity: 62%   Direction: 310°NW
Pressure: 30.01"   Gusts: 25mph
Location:  38.97°N, 77.38°W
Report Text: KIAD 241352Z 31016G22KT 10SM FEW110 BKN200 13/06 A3001 RMK AO2 SLP162 T01280056
Loading
Personal Weather Stations






























Interactive Weather Map
Tropical Storm Tracking
New forecast layout! Learn more

10-Day Weather Forecast

Advertisements
Track Severe Weather on mobile